sensor_id;sensor_type;location;lat;lon;timestamp;temperature;humidity
11619;DHT22;5865;48.776;9.280;2023-05-20T00:01:04;10.40;99.90
11619;DHT22;5865;48.776;9.280;2023-05-20T00:22:40;10.40;99.90
11619;DHT22;5865;48.776;9.280;2023-05-20T00:54:53;10.90;99.90
11619;DHT22;5865;48.776;9.280;2023-05-20T01:02:57;10.80;99.90
11619;DHT22;5865;48.776;9.280;2023-05-20T01:08:19;10.80;99.90
11619;DHT22;5865;48.776;9.280;2023-05-20T01:52:12;10.60;99.90
11619;DHT22;5865;48.776;9.280;2023-05-20T01:54:53;10.60;99.90
11619;DHT22;5865;48.776;9.280;2023-05-20T01:57:34;10.60;99.90
11619;DHT22;5865;48.776;9.280;2023-05-20T02:00:15;10.50;99.90
11619;DHT22;5865;48.776;9.280;2023-05-20T02:02:58;10.30;99.90
11619;DHT22;5865;48.776;9.280;2023-05-20T03:12:53;9.30;99.90
11619;DHT22;5865;48.776;9.280;2023-05-20T04:35:02;10.30;99.90
11619;DHT22;5865;48.776;9.280;2023-05-20T04:37:33;10.40;99.90
11619;DHT22;5865;48.776;9.280;2023-05-20T04:40:02;10.40;99.90
11619;DHT22;5865;48.776;9.280;2023-05-20T04:42:31;10.40;99.90
11619;DHT22;5865;48.776;9.280;2023-05-20T04:44:58;10.40;99.90
11619;DHT22;5865;48.776;9.280;2023-05-20T04:47:28;10.60;99.90
11619;DHT22;5865;48.776;9.280;2023-05-20T04:49:55;10.70;99.90
11619;DHT22;5865;48.776;9.280;2023-05-20T04:52:24;10.80;99.90
11619;DHT22;5865;48.776;9.280;2023-05-20T04:54:51;10.80;99.90
11619;DHT22;5865;48.776;9.280;2023-05-20T04:57:18;11.00;99.90
11619;DHT22;5865;48.776;9.280;2023-05-20T04:59:46;11.20;99.90
11619;DHT22;5865;48.776;9.280;2023-05-20T05:02:13;11.60;99.90
11619;DHT22;5865;48.776;9.280;2023-05-20T05:04:40;11.90;99.90
11619;DHT22;5865;48.776;9.280;2023-05-20T05:07:07;12.50;99.90
11619;DHT22;5865;48.776;9.280;2023-05-20T05:09:36;12.70;99.90
11619;DHT22;5865;48.776;9.280;2023-05-20T05:12:03;13.00;99.90
11619;DHT22;5865;48.776;9.280;2023-05-20T05:14:30;13.30;99.90
11619;DHT22;5865;48.776;9.280;2023-05-20T05:16:57;13.40;99.90
11619;DHT22;5865;48.776;9.280;2023-05-20T05:19:24;13.50;99.90
11619;DHT22;5865;48.776;9.280;2023-05-20T05:21:51;13.60;99.90
11619;DHT22;5865;48.776;9.280;2023-05-20T05:24:18;13.70;99.90
11619;DHT22;5865;48.776;9.280;2023-05-20T05:26:47;14.00;99.90
11619;DHT22;5865;48.776;9.280;2023-05-20T05:29:14;14.10;99.90
11619;DHT22;5865;48.776;9.280;2023-05-20T05:31:41;14.20;99.90
11619;DHT22;5865;48.776;9.280;2023-05-20T05:34:08;14.30;99.90
11619;DHT22;5865;48.776;9.280;2023-05-20T05:36:35;14.40;99.90
11619;DHT22;5865;48.776;9.280;2023-05-20T05:39:02;14.40;99.90
11619;DHT22;5865;48.776;9.280;2023-05-20T05:41:30;14.50;99.90
11619;DHT22;5865;48.776;9.280;2023-05-20T05:46:27;14.00;99.90
11619;DHT22;5865;48.776;9.280;2023-05-20T05:48:54;14.00;99.90
11619;DHT22;5865;48.776;9.280;2023-05-20T05:51:23;13.90;99.90
11619;DHT22;5865;48.776;9.280;2023-05-20T05:53:53;13.80;99.90
11619;DHT22;5865;48.776;9.280;2023-05-20T05:56:20;13.90;99.90
11619;DHT22;5865;48.776;9.280;2023-05-20T05:58:47;13.90;99.90
11619;DHT22;5865;48.776;9.280;2023-05-20T06:01:17;13.80;99.90
11619;DHT22;5865;48.776;9.280;2023-05-20T06:03:43;13.80;99.90
11619;DHT22;5865;48.776;9.280;2023-05-20T06:06:11;14.00;99.90
11619;DHT22;5865;48.776;9.280;2023-05-20T06:08:38;14.10;99.90
11619;DHT22;5865;48.776;9.280;2023-05-20T06:11:06;14.30;99.90
11619;DHT22;5865;48.776;9.280;2023-05-20T06:13:34;14.30;99.90
11619;DHT22;5865;48.776;9.280;2023-05-20T06:16:01;14.20;99.90
11619;DHT22;5865;48.776;9.280;2023-05-20T06:18:29;14.20;99.90
11619;DHT22;5865;48.776;9.280;2023-05-20T06:21:02;14.40;99.90
11619;DHT22;5865;48.776;9.280;2023-05-20T06:23:29;14.70;99.90
11619;DHT22;5865;48.776;9.280;2023-05-20T06:25:59;14.90;99.90
11619;DHT22;5865;48.776;9.280;2023-05-20T06:28:27;14.90;99.90
11619;DHT22;5865;48.776;9.280;2023-05-20T06:30:55;14.90;99.90
11619;DHT22;5865;48.776;9.280;2023-05-20T06:33:23;15.00;99.90
11619;DHT22;5865;48.776;9.280;2023-05-20T06:35:55;15.30;99.90
11619;DHT22;5865;48.776;9.280;2023-05-20T06:38:22;15.30;99.90
11619;DHT22;5865;48.776;9.280;2023-05-20T06:40:50;15.40;99.90
11619;DHT22;5865;48.776;9.280;2023-05-20T06:43:17;15.60;99.90
11619;DHT22;5865;48.776;9.280;2023-05-20T06:45:53;15.70;99.90
11619;DHT22;5865;48.776;9.280;2023-05-20T06:48:27;15.80;99.90
11619;DHT22;5865;48.776;9.280;2023-05-20T06:50:56;16.10;99.90
11619;DHT22;5865;48.776;9.280;2023-05-20T06:53:23;16.20;99.90
11619;DHT22;5865;48.776;9.280;2023-05-20T06:55:52;16.40;99.90
11619;DHT22;5865;48.776;9.280;2023-05-20T06:58:20;16.40;99.90
11619;DHT22;5865;48.776;9.280;2023-05-20T07:16:20;16.70;99.90
11619;DHT22;5865;48.776;9.280;2023-05-20T07:24:28;17.60;99.90
11619;DHT22;5865;48.776;9.280;2023-05-20T08:26:09;20.10;99.90
11619;DHT22;5865;48.776;9.280;2023-05-20T08:45:17;20.60;99.90
11619;DHT22;5865;48.776;9.280;2023-05-20T08:53:09;21.40;99.90
11619;DHT22;5865;48.776;9.280;2023-05-20T10:14:14;22.80;99.90
11619;DHT22;5865;48.776;9.280;2023-05-20T10:17:05;22.50;99.90
11619;DHT22;5865;48.776;9.280;2023-05-20T10:25:28;22.10;99.90
11619;DHT22;5865;48.776;9.280;2023-05-20T10:28:30;22.30;99.90
11619;DHT22;5865;48.776;9.280;2023-05-20T10:31:14;22.60;99.90
11619;DHT22;5865;48.776;9.280;2023-05-20T10:34:00;22.90;99.90
11619;DHT22;5865;48.776;9.280;2023-05-20T10:40:04;22.70;99.90
11619;DHT22;5865;48.776;9.280;2023-05-20T10:46:46;22.90;99.90
11619;DHT22;5865;48.776;9.280;2023-05-20T10:55:22;23.10;99.90
11619;DHT22;5865;48.776;9.280;2023-05-20T11:36:57;24.80;96.50
11619;DHT22;5865;48.776;9.280;2023-05-20T11:42:58;25.00;94.80
11619;DHT22;5865;48.776;9.280;2023-05-20T12:25:05;27.30;86.40
11619;DHT22;5865;48.776;9.280;2023-05-20T14:09:02;27.10;72.20
11619;DHT22;5865;48.776;9.280;2023-05-20T14:11:31;27.40;66.20
11619;DHT22;5865;48.776;9.280;2023-05-20T14:13:58;27.60;66.80
11619;DHT22;5865;48.776;9.280;2023-05-20T14:16:25;28.80;67.40
11619;DHT22;5865;48.776;9.280;2023-05-20T14:18:51;28.60;64.60
11619;DHT22;5865;48.776;9.280;2023-05-20T14:21:18;29.00;61.90
11619;DHT22;5865;48.776;9.280;2023-05-20T14:23:46;28.60;65.30
11619;DHT22;5865;48.776;9.280;2023-05-20T14:26:14;28.60;63.00
11619;DHT22;5865;48.776;9.280;2023-05-20T14:28:41;28.60;63.60
11619;DHT22;5865;48.776;9.280;2023-05-20T14:31:08;29.70;60.80
11619;DHT22;5865;48.776;9.280;2023-05-20T14:33:36;29.90;61.30
11619;DHT22;5865;48.776;9.280;2023-05-20T14:36:03;29.10;61.70
11619;DHT22;5865;48.776;9.280;2023-05-20T14:38:30;28.30;63.10
11619;DHT22;5865;48.776;9.280;2023-05-20T14:40:57;28.10;62.70
11619;DHT22;5865;48.776;9.280;2023-05-20T14:43:25;28.10;63.70
11619;DHT22;5865;48.776;9.280;2023-05-20T14:45:53;28.10;65.20
11619;DHT22;5865;48.776;9.280;2023-05-20T14:48:22;27.60;65.90
11619;DHT22;5865;48.776;9.280;2023-05-20T14:50:49;26.60;67.10
11619;DHT22;5865;48.776;9.280;2023-05-20T14:53:16;26.70;67.90
11619;DHT22;5865;48.776;9.280;2023-05-20T14:55:43;26.80;68.20
11619;DHT22;5865;48.776;9.280;2023-05-20T14:58:10;27.40;67.20
11619;DHT22;5865;48.776;9.280;2023-05-20T15:00:39;26.40;68.10
11619;DHT22;5865;48.776;9.280;2023-05-20T15:03:06;26.50;69.10
11619;DHT22;5865;48.776;9.280;2023-05-20T15:05:33;26.40;67.60
11619;DHT22;5865;48.776;9.280;2023-05-20T15:08:00;27.00;68.10
11619;DHT22;5865;48.776;9.280;2023-05-20T15:10:27;26.80;67.30
11619;DHT22;5865;48.776;9.280;2023-05-20T15:12:54;26.90;68.50
11619;DHT22;5865;48.776;9.280;2023-05-20T15:15:20;27.60;66.20
11619;DHT22;5865;48.776;9.280;2023-05-20T15:17:49;27.60;67.60
11619;DHT22;5865;48.776;9.280;2023-05-20T15:20:16;27.10;67.50
11619;DHT22;5865;48.776;9.280;2023-05-20T15:22:43;27.60;66.30
11619;DHT22;5865;48.776;9.280;2023-05-20T15:25:12;27.90;67.70
11619;DHT22;5865;48.776;9.280;2023-05-20T15:27:40;28.10;63.80
11619;DHT22;5865;48.776;9.280;2023-05-20T15:30:08;28.10;63.60
11619;DHT22;5865;48.776;9.280;2023-05-20T15:32:35;28.50;63.30
11619;DHT22;5865;48.776;9.280;2023-05-20T15:35:04;27.30;64.60
11619;DHT22;5865;48.776;9.280;2023-05-20T15:37:31;27.20;65.90
11619;DHT22;5865;48.776;9.280;2023-05-20T15:39:58;27.80;66.20
11619;DHT22;5865;48.776;9.280;2023-05-20T15:42:25;28.50;63.60
11619;DHT22;5865;48.776;9.280;2023-05-20T15:44:52;28.80;62.40
11619;DHT22;5865;48.776;9.280;2023-05-20T15:47:19;29.40;62.80
11619;DHT22;5865;48.776;9.280;2023-05-20T15:49:46;29.70;61.00
11619;DHT22;5865;48.776;9.280;2023-05-20T15:52:15;29.00;59.70
11619;DHT22;5865;48.776;9.280;2023-05-20T15:54:42;28.80;61.50
11619;DHT22;5865;48.776;9.280;2023-05-20T15:57:09;29.60;59.30
11619;DHT22;5865;48.776;9.280;2023-05-20T15:59:36;29.80;59.80
11619;DHT22;5865;48.776;9.280;2023-05-20T16:02:03;30.10;59.90
11619;DHT22;5865;48.776;9.280;2023-05-20T16:04:30;30.20;59.40
11619;DHT22;5865;48.776;9.280;2023-05-20T16:06:57;32.10;57.90
11619;DHT22;5865;48.776;9.280;2023-05-20T16:09:25;31.90;56.60
11619;DHT22;5865;48.776;9.280;2023-05-20T16:11:52;30.70;56.40
11619;DHT22;5865;48.776;9.280;2023-05-20T16:14:20;30.30;57.20
11619;DHT22;5865;48.776;9.280;2023-05-20T16:16:47;30.70;57.80
11619;DHT22;5865;48.776;9.280;2023-05-20T16:19:14;30.10;58.50
11619;DHT22;5865;48.776;9.280;2023-05-20T16:21:41;27.30;62.40
11619;DHT22;5865;48.776;9.280;2023-05-20T16:24:08;27.00;64.50
11619;DHT22;5865;48.776;9.280;2023-05-20T16:26:36;26.60;66.00
11619;DHT22;5865;48.776;9.280;2023-05-20T16:29:03;26.90;65.50
11619;DHT22;5865;48.776;9.280;2023-05-20T16:31:31;27.20;65.40
11619;DHT22;5865;48.776;9.280;2023-05-20T16:33:58;27.30;64.80
11619;DHT22;5865;48.776;9.280;2023-05-20T16:36:25;26.90;65.70
11619;DHT22;5865;48.776;9.280;2023-05-20T16:38:52;26.40;67.40
11619;DHT22;5865;48.776;9.280;2023-05-20T16:41:19;26.90;65.70
11619;DHT22;5865;48.776;9.280;2023-05-20T16:43:48;26.90;65.80
11619;DHT22;5865;48.776;9.280;2023-05-20T16:46:15;26.60;67.00
11619;DHT22;5865;48.776;9.280;2023-05-20T16:48:42;27.00;67.60
11619;DHT22;5865;48.776;9.280;2023-05-20T16:51:09;26.60;65.90
11619;DHT22;5865;48.776;9.280;2023-05-20T16:53:36;26.40;67.60
11619;DHT22;5865;48.776;9.280;2023-05-20T16:56:04;26.00;67.20
11619;DHT22;5865;48.776;9.280;2023-05-20T16:58:31;25.40;69.30
11619;DHT22;5865;48.776;9.280;2023-05-20T17:01:00;24.90;70.20
11619;DHT22;5865;48.776;9.280;2023-05-20T17:03:27;24.80;70.20
11619;DHT22;5865;48.776;9.280;2023-05-20T17:05:54;24.80;73.10
11619;DHT22;5865;48.776;9.280;2023-05-20T17:08:21;24.60;73.40
11619;DHT22;5865;48.776;9.280;2023-05-20T17:10:48;24.70;72.40
11619;DHT22;5865;48.776;9.280;2023-05-20T17:13:16;24.80;73.50
11619;DHT22;5865;48.776;9.280;2023-05-20T17:15:43;25.00;74.90
11619;DHT22;5865;48.776;9.280;2023-05-20T17:18:11;25.20;73.20
11619;DHT22;5865;48.776;9.280;2023-05-20T17:20:38;25.10;72.10
11619;DHT22;5865;48.776;9.280;2023-05-20T17:26:52;25.10;74.70
11619;DHT22;5865;48.776;9.280;2023-05-20T17:31:47;24.80;73.30
11619;DHT22;5865;48.776;9.280;2023-05-20T17:34:13;24.70;75.20
11619;DHT22;5865;48.776;9.280;2023-05-20T17:36:40;24.40;77.10
11619;DHT22;5865;48.776;9.280;2023-05-20T17:39:07;24.30;77.10
11619;DHT22;5865;48.776;9.280;2023-05-20T17:41:35;24.10;77.90
11619;DHT22;5865;48.776;9.280;2023-05-20T17:44:02;23.80;80.80
11619;DHT22;5865;48.776;9.280;2023-05-20T17:46:29;23.40;84.30
11619;DHT22;5865;48.776;9.280;2023-05-20T17:48:57;23.00;85.70
11619;DHT22;5865;48.776;9.280;2023-05-20T17:51:24;22.70;88.50
11619;DHT22;5865;48.776;9.280;2023-05-20T17:53:51;22.40;90.60
11619;DHT22;5865;48.776;9.280;2023-05-20T17:56:18;22.30;91.30
11619;DHT22;5865;48.776;9.280;2023-05-20T17:58:48;22.10;92.10
11619;DHT22;5865;48.776;9.280;2023-05-20T18:01:16;22.10;92.50
11619;DHT22;5865;48.776;9.280;2023-05-20T18:03:43;21.90;93.20
11619;DHT22;5865;48.776;9.280;2023-05-20T18:06:11;21.80;93.80
11619;DHT22;5865;48.776;9.280;2023-05-20T18:08:38;21.80;95.10
11619;DHT22;5865;48.776;9.280;2023-05-20T18:11:07;21.60;96.00
11619;DHT22;5865;48.776;9.280;2023-05-20T18:13:33;21.50;97.00
11619;DHT22;5865;48.776;9.280;2023-05-20T18:16:01;21.30;97.90
11619;DHT22;5865;48.776;9.280;2023-05-20T18:18:28;21.30;99.00
11619;DHT22;5865;48.776;9.280;2023-05-20T18:20:55;21.10;99.90
11619;DHT22;5865;48.776;9.280;2023-05-20T18:23:23;21.00;99.90
11619;DHT22;5865;48.776;9.280;2023-05-20T18:25:50;20.90;99.90
11619;DHT22;5865;48.776;9.280;2023-05-20T18:28:17;20.80;99.90
11619;DHT22;5865;48.776;9.280;2023-05-20T18:30:44;20.80;99.90
11619;DHT22;5865;48.776;9.280;2023-05-20T18:33:11;20.70;99.90
11619;DHT22;5865;48.776;9.280;2023-05-20T18:35:38;20.60;99.90
11619;DHT22;5865;48.776;9.280;2023-05-20T18:38:05;20.50;99.90
11619;DHT22;5865;48.776;9.280;2023-05-20T18:40:33;20.30;99.90
11619;DHT22;5865;48.776;9.280;2023-05-20T18:43:00;20.30;99.90
11619;DHT22;5865;48.776;9.280;2023-05-20T18:45:27;20.20;99.90
11619;DHT22;5865;48.776;9.280;2023-05-20T18:47:54;20.10;99.90
11619;DHT22;5865;48.776;9.280;2023-05-20T18:50:23;19.90;99.90
11619;DHT22;5865;48.776;9.280;2023-05-20T18:52:50;19.90;99.90
11619;DHT22;5865;48.776;9.280;2023-05-20T18:55:17;19.80;99.90
11619;DHT22;5865;48.776;9.280;2023-05-20T18:57:46;19.70;99.90
11619;DHT22;5865;48.776;9.280;2023-05-20T19:00:14;19.50;99.90
11619;DHT22;5865;48.776;9.280;2023-05-20T19:02:41;19.40;99.90
11619;DHT22;5865;48.776;9.280;2023-05-20T19:05:10;19.40;99.90
11619;DHT22;5865;48.776;9.280;2023-05-20T19:07:38;19.30;99.90
11619;DHT22;5865;48.776;9.280;2023-05-20T19:10:06;19.30;99.90
11619;DHT22;5865;48.776;9.280;2023-05-20T19:12:33;19.40;99.90
11619;DHT22;5865;48.776;9.280;2023-05-20T19:15:02;19.40;99.90
11619;DHT22;5865;48.776;9.280;2023-05-20T19:17:29;19.40;99.90
11619;DHT22;5865;48.776;9.280;2023-05-20T19:19:56;19.40;99.90
11619;DHT22;5865;48.776;9.280;2023-05-20T19:22:23;19.40;99.90
11619;DHT22;5865;48.776;9.280;2023-05-20T19:24:50;19.40;99.90
11619;DHT22;5865;48.776;9.280;2023-05-20T19:27:17;19.30;99.90
11619;DHT22;5865;48.776;9.280;2023-05-20T19:29:44;19.30;99.90
11619;DHT22;5865;48.776;9.280;2023-05-20T19:32:12;19.10;99.90
11619;DHT22;5865;48.776;9.280;2023-05-20T19:34:39;19.10;99.90
11619;DHT22;5865;48.776;9.280;2023-05-20T19:37:08;19.00;99.90
11619;DHT22;5865;48.776;9.280;2023-05-20T19:39:35;19.10;99.90
11619;DHT22;5865;48.776;9.280;2023-05-20T19:42:02;19.00;99.90
11619;DHT22;5865;48.776;9.280;2023-05-20T19:44:29;18.90;99.90
11619;DHT22;5865;48.776;9.280;2023-05-20T19:46:56;18.90;99.90
11619;DHT22;5865;48.776;9.280;2023-05-20T19:49:24;18.80;99.90
11619;DHT22;5865;48.776;9.280;2023-05-20T19:51:53;18.70;99.90
11619;DHT22;5865;48.776;9.280;2023-05-20T19:54:20;18.70;99.90
11619;DHT22;5865;48.776;9.280;2023-05-20T19:56:47;18.70;99.90
11619;DHT22;5865;48.776;9.280;2023-05-20T19:59:15;18.60;99.90
11619;DHT22;5865;48.776;9.280;2023-05-20T20:01:42;18.50;99.90
11619;DHT22;5865;48.776;9.280;2023-05-20T20:04:09;18.50;99.90
11619;DHT22;5865;48.776;9.280;2023-05-20T20:06:39;18.50;99.90
11619;DHT22;5865;48.776;9.280;2023-05-20T20:09:05;18.50;99.90
11619;DHT22;5865;48.776;9.280;2023-05-20T20:11:33;18.50;99.90
11619;DHT22;5865;48.776;9.280;2023-05-20T20:48:12;17.90;99.90
11619;DHT22;5865;48.776;9.280;2023-05-20T20:50:42;17.80;99.90
11619;DHT22;5865;48.776;9.280;2023-05-20T20:53:10;17.70;99.90
11619;DHT22;5865;48.776;9.280;2023-05-20T20:55:39;17.50;99.90
11619;DHT22;5865;48.776;9.280;2023-05-20T20:58:08;17.30;99.90
11619;DHT22;5865;48.776;9.280;2023-05-20T21:42:48;14.90;99.90
11619;DHT22;5865;48.776;9.280;2023-05-20T21:45:15;14.90;99.90
11619;DHT22;5865;48.776;9.280;2023-05-20T21:50:12;14.80;99.90
11619;DHT22;5865;48.776;9.280;2023-05-20T21:52:40;14.80;99.90
11619;DHT22;5865;48.776;9.280;2023-05-20T21:55:08;14.90;99.90
11619;DHT22;5865;48.776;9.280;2023-05-20T21:57:36;14.80;99.90
11619;DHT22;5865;48.776;9.280;2023-05-20T22:00:07;14.70;99.90
11619;DHT22;5865;48.776;9.280;2023-05-20T22:02:39;14.80;99.90
11619;DHT22;5865;48.776;9.280;2023-05-20T22:05:06;14.80;99.90
11619;DHT22;5865;48.776;9.280;2023-05-20T22:07:33;14.80;99.90
11619;DHT22;5865;48.776;9.280;2023-05-20T22:12:28;14.80;99.90
11619;DHT22;5865;48.776;9.280;2023-05-20T22:14:56;14.80;99.90
11619;DHT22;5865;48.776;9.280;2023-05-20T22:17:26;14.80;99.90
11619;DHT22;5865;48.776;9.280;2023-05-20T22:19:58;14.70;99.90
11619;DHT22;5865;48.776;9.280;2023-05-20T22:22:28;14.80;99.90
11619;DHT22;5865;48.776;9.280;2023-05-20T22:25:00;14.80;99.90
11619;DHT22;5865;48.776;9.280;2023-05-20T22:27:31;14.80;99.90
11619;DHT22;5865;48.776;9.280;2023-05-20T22:30:08;14.80;99.90
11619;DHT22;5865;48.776;9.280;2023-05-20T22:32:41;14.80;99.90
11619;DHT22;5865;48.776;9.280;2023-05-20T22:35:22;14.70;99.90
11619;DHT22;5865;48.776;9.280;2023-05-20T22:37:51;14.80;99.90
11619;DHT22;5865;48.776;9.280;2023-05-20T22:40:19;14.70;99.90
11619;DHT22;5865;48.776;9.280;2023-05-20T22:42:48;14.80;99.90
11619;DHT22;5865;48.776;9.280;2023-05-20T22:45:15;14.70;99.90
11619;DHT22;5865;48.776;9.280;2023-05-20T22:47:44;14.60;99.90
11619;DHT22;5865;48.776;9.280;2023-05-20T22:50:12;14.60;99.90
11619;DHT22;5865;48.776;9.280;2023-05-20T22:52:43;14.60;99.90
11619;DHT22;5865;48.776;9.280;2023-05-20T22:55:10;14.50;99.90
11619;DHT22;5865;48.776;9.280;2023-05-20T22:57:39;14.50;99.90
11619;DHT22;5865;48.776;9.280;2023-05-20T23:00:07;14.50;99.90
11619;DHT22;5865;48.776;9.280;2023-05-20T23:02:38;14.50;99.90
11619;DHT22;5865;48.776;9.280;2023-05-20T23:05:08;14.40;99.90
11619;DHT22;5865;48.776;9.280;2023-05-20T23:07:36;14.40;99.90
11619;DHT22;5865;48.776;9.280;2023-05-20T23:12:31;14.30;99.90
11619;DHT22;5865;48.776;9.280;2023-05-20T23:14:58;14.20;99.90
11619;DHT22;5865;48.776;9.280;2023-05-20T23:17:29;14.20;99.90
11619;DHT22;5865;48.776;9.280;2023-05-20T23:19:56;14.20;99.90
11619;DHT22;5865;48.776;9.280;2023-05-20T23:22:28;14.30;99.90
11619;DHT22;5865;48.776;9.280;2023-05-20T23:24:57;14.40;99.90
11619;DHT22;5865;48.776;9.280;2023-05-20T23:27:24;14.50;99.90
11619;DHT22;5865;48.776;9.280;2023-05-20T23:29:51;14.50;99.90
11619;DHT22;5865;48.776;9.280;2023-05-20T23:32:18;14.40;99.90
11619;DHT22;5865;48.776;9.280;2023-05-20T23:34:46;14.40;99.90
11619;DHT22;5865;48.776;9.280;2023-05-20T23:37:13;14.50;99.90
11619;DHT22;5865;48.776;9.280;2023-05-20T23:39:43;14.50;99.90
11619;DHT22;5865;48.776;9.280;2023-05-20T23:42:10;14.50;99.90
11619;DHT22;5865;48.776;9.280;2023-05-20T23:44:38;14.70;99.90
11619;DHT22;5865;48.776;9.280;2023-05-20T23:47:05;14.40;99.90
11619;DHT22;5865;48.776;9.280;2023-05-20T23:49:34;14.30;99.90
11619;DHT22;5865;48.776;9.280;2023-05-20T23:52:01;14.20;99.90
11619;DHT22;5865;48.776;9.280;2023-05-20T23:54:28;14.20;99.90
11619;DHT22;5865;48.776;9.280;2023-05-20T23:57:02;14.10;99.90
11619;DHT22;5865;48.776;9.280;2023-05-20T23:59:29;14.00;99.90
